createdAt,value
2023-04-06T00:01:11.751Z,98621.00
2023-04-06T00:03:40.652Z,98630.91
2023-04-06T00:06:11.683Z,98623.84
2023-04-06T00:08:40.693Z,98623.84
2023-04-06T00:11:09.716Z,98629.22
2023-04-06T00:13:38.913Z,98622.19
2023-04-06T00:16:09.112Z,98624.88
2023-04-06T00:18:38.285Z,98626.72
2023-04-06T00:21:07.616Z,98618.66
2023-04-06T00:23:38.038Z,98620.50
2023-04-06T00:26:07.476Z,98619.69
2023-04-06T00:28:36.768Z,98617.00
2023-04-06T00:31:05.975Z,98613.44
2023-04-06T00:33:35.323Z,98619.69
2023-04-06T00:36:04.704Z,98625.22
2023-04-06T00:38:33.617Z,98611.78
2023-04-06T00:41:04.171Z,98607.25
2023-04-06T00:43:33.525Z,98612.63
2023-04-06T00:46:02.506Z,98611.78
2023-04-06T00:48:32.625Z,98612.78
2023-04-06T00:51:01.542Z,98610.94
2023-04-06T00:53:30.285Z,98611.78
2023-04-06T00:55:59.750Z,98617.16
2023-04-06T00:58:29.923Z,98609.94
2023-04-06T01:00:58.966Z,98609.09
2023-04-06T01:03:27.604Z,98609.09
2023-04-06T01:05:59.506Z,98602.88
2023-04-06T01:08:29.115Z,98604.75
2023-04-06T01:10:57.965Z,98603.88
2023-04-06T01:13:26.884Z,98601.19
2023-04-06T01:15:57.599Z,98608.41
2023-04-06T01:18:29.131Z,98603.03
2023-04-06T01:20:58.239Z,98606.75
2023-04-06T01:23:28.976Z,98600.53
2023-04-06T01:25:58.162Z,98603.22
2023-04-06T01:28:27.330Z,98599.53
2023-04-06T01:30:56.247Z,98600.53
2023-04-06T01:33:25.196Z,98592.50
2023-04-06T01:35:54.505Z,98602.38
2023-04-06T01:38:23.425Z,98599.53
2023-04-06T01:40:53.645Z,98586.25
2023-04-06T01:43:22.250Z,98594.31
2023-04-06T01:45:50.921Z,98593.47
2023-04-06T01:48:19.660Z,98593.47
2023-04-06T01:50:48.518Z,98592.63
2023-04-06T01:53:17.706Z,98590.78
2023-04-06T01:55:46.500Z,98587.28
2023-04-06T01:58:17.510Z,98598.84
2023-04-06T02:00:46.565Z,98587.28
2023-04-06T02:03:16.088Z,98591.81
2023-04-06T02:05:44.941Z,98590.97
2023-04-06T02:08:13.789Z,98595.31
2023-04-06T02:10:42.636Z,98590.97
2023-04-06T02:13:11.586Z,98590.97
2023-04-06T02:15:41.639Z,98590.97
2023-04-06T02:18:11.305Z,98588.28
2023-04-06T02:20:40.301Z,98588.28
2023-04-06T02:23:09.401Z,98583.91
2023-04-06T02:25:38.419Z,98588.28
2023-04-06T02:28:07.317Z,98584.75
2023-04-06T02:30:36.519Z,98587.59
2023-04-06T02:33:07.015Z,98581.22
2023-04-06T02:35:36.138Z,98582.25
2023-04-06T02:38:05.043Z,98578.53
2023-04-06T02:40:34.186Z,98578.53
2023-04-06T02:43:03.203Z,98584.75
2023-04-06T02:45:31.768Z,98583.06
2023-04-06T02:48:01.020Z,98582.25
2023-04-06T02:50:31.308Z,98582.25
2023-04-06T02:53:00.278Z,98589.47
2023-04-06T02:55:29.320Z,98587.75
2023-04-06T02:57:58.061Z,98594.00
2023-04-06T03:00:27.518Z,98586.78
2023-04-06T03:02:56.399Z,98588.63
2023-04-06T03:05:25.479Z,98589.63
2023-04-06T03:07:55.781Z,98595.81
2023-04-06T03:10:24.595Z,98589.63
2023-04-06T03:12:53.350Z,98589.63
2023-04-06T03:15:22.350Z,98589.63
2023-04-06T03:17:51.237Z,98584.25
2023-04-06T03:20:22.690Z,98587.75
2023-04-06T03:22:54.959Z,98586.09
2023-04-06T03:25:24.080Z,98591.47
2023-04-06T03:27:52.828Z,98582.56
2023-04-06T03:30:22.517Z,98587.94
2023-04-06T03:32:51.384Z,98587.94
2023-04-06T03:35:20.741Z,98596.00
2023-04-06T03:37:49.888Z,98594.16
2023-04-06T03:40:20.225Z,98599.66
2023-04-06T03:42:48.977Z,98597.00
2023-04-06T03:45:18.016Z,98597.00
2023-04-06T03:47:46.839Z,98593.31
2023-04-06T03:50:16.115Z,98595.16
2023-04-06T03:52:45.096Z,98597.84
2023-04-06T03:55:14.410Z,98604.22
2023-04-06T03:57:44.718Z,98602.34
2023-04-06T04:00:15.318Z,98609.44
2023-04-06T04:02:44.333Z,98602.34
2023-04-06T04:05:13.436Z,98606.88
2023-04-06T04:07:42.308Z,98603.38
2023-04-06T04:10:12.158Z,98609.75
2023-04-06T04:12:41.190Z,98605.22
2023-04-06T04:15:12.658Z,98604.41
2023-04-06T04:17:43.911Z,98615.13
2023-04-06T04:20:14.165Z,98604.41
2023-04-06T04:22:43.838Z,98616.94
2023-04-06T04:25:12.763Z,98607.06
2023-04-06T04:27:41.755Z,98609.75
2023-04-06T04:30:12.601Z,98604.41
2023-04-06T04:32:41.497Z,98599.03
2023-04-06T04:35:12.643Z,98604.41
2023-04-06T04:37:41.382Z,98608.06
2023-04-06T04:40:13.528Z,98611.59
2023-04-06T04:42:42.798Z,98609.75
2023-04-06T04:45:13.532Z,98607.22
2023-04-06T04:47:42.351Z,98600.84
2023-04-06T04:50:13.050Z,98613.44
2023-04-06T04:52:45.682Z,98608.06
2023-04-06T04:55:14.945Z,98609.91
2023-04-06T04:57:44.132Z,98606.22
2023-04-06T05:00:16.088Z,98602.69
2023-04-06T05:02:45.570Z,98602.69
2023-04-06T05:05:14.905Z,98603.53
2023-04-06T05:07:44.168Z,98604.53
2023-04-06T05:10:13.722Z,98594.63
2023-04-06T05:12:43.426Z,98597.31
2023-04-06T05:15:14.695Z,98597.31
2023-04-06T05:17:43.781Z,98595.66
2023-04-06T05:20:14.643Z,98602.69
2023-04-06T05:22:45.540Z,98601.72
2023-04-06T05:25:15.565Z,98607.72
2023-04-06T05:27:45.484Z,98606.41
2023-04-06T05:30:17.277Z,98600.00
2023-04-06T05:32:46.943Z,98603.72
2023-04-06T05:35:16.652Z,98602.88
2023-04-06T05:37:46.025Z,98599.31
2023-04-06T05:40:17.432Z,98603.53
2023-04-06T05:42:48.596Z,98600.34
2023-04-06T05:45:21.128Z,98598.50
2023-04-06T05:47:51.148Z,98592.97
2023-04-06T05:50:21.558Z,98592.97
2023-04-06T05:52:51.321Z,98584.25
2023-04-06T05:55:21.480Z,98592.16
2023-04-06T05:57:50.928Z,98605.38
2023-04-06T06:00:21.938Z,98597.19
2023-04-06T06:02:51.625Z,98593.47
2023-04-06T06:05:21.484Z,98589.13
2023-04-06T06:07:50.870Z,98597.19
2023-04-06T06:10:19.738Z,98589.97
2023-04-06T06:12:48.676Z,98591.81
2023-04-06T06:15:17.663Z,98596.69
2023-04-06T06:17:48.456Z,98580.56
2023-04-06T06:20:19.067Z,98595.00
2023-04-06T06:22:48.585Z,98589.63
2023-04-06T06:25:17.809Z,98586.94
2023-04-06T06:27:46.743Z,98588.78
2023-04-06T06:30:16.132Z,98589.97
2023-04-06T06:32:47.472Z,98585.25
2023-04-06T06:35:16.672Z,98598.50
2023-04-06T06:37:45.662Z,98593.31
2023-04-06T06:40:25.782Z,98597.00
2023-04-06T06:42:54.733Z,98592.50
2023-04-06T06:45:23.519Z,98597.00
2023-04-06T06:47:56.271Z,98596.16
2023-04-06T06:50:25.566Z,98599.53
2023-04-06T06:52:54.321Z,98601.38
2023-04-06T06:55:23.839Z,98597.84
2023-04-06T06:57:52.777Z,98589.81
2023-04-06T07:00:23.199Z,98596.00
2023-04-06T07:02:53.889Z,98600.34
2023-04-06T07:05:27.411Z,98595.81
2023-04-06T07:07:58.040Z,98604.56
2023-04-06T07:10:28.659Z,98601.03
2023-04-06T07:12:57.782Z,98600.19
2023-04-06T07:15:27.016Z,98596.50
2023-04-06T07:17:57.931Z,98596.50
2023-04-06T07:20:29.551Z,98601.03
2023-04-06T07:22:58.776Z,98610.75
2023-04-06T07:25:28.114Z,98601.88
2023-04-06T07:27:57.186Z,98605.38
2023-04-06T07:30:27.892Z,98607.94
2023-04-06T07:32:58.899Z,98608.06
2023-04-06T07:35:28.469Z,98608.06
2023-04-06T07:37:57.510Z,98602.69
2023-04-06T07:40:27.418Z,98606.25
2023-04-06T07:42:57.957Z,98603.38
2023-04-06T07:45:26.855Z,98604.41
2023-04-06T07:47:57.636Z,98592.66
2023-04-06T07:50:26.448Z,98599.69
2023-04-06T07:52:55.408Z,98597.00
2023-04-06T07:55:24.694Z,98600.69
2023-04-06T07:57:53.662Z,98593.81
2023-04-06T08:00:23.779Z,98602.06
2023-04-06T08:02:52.784Z,98591.13
2023-04-06T08:05:23.266Z,98593.47
2023-04-06T08:07:52.514Z,98586.25
2023-04-06T08:10:21.429Z,98587.94
2023-04-06T08:12:50.243Z,98590.78
2023-04-06T08:15:20.815Z,98602.38
2023-04-06T08:17:50.002Z,98590.78
2023-04-06T08:20:19.321Z,98598.69
2023-04-06T08:22:52.252Z,98587.94
2023-04-06T08:25:22.581Z,98590.78
2023-04-06T08:27:51.820Z,98587.13
2023-04-06T08:30:21.179Z,98588.78
2023-04-06T08:32:50.018Z,98586.25
2023-04-06T08:35:19.538Z,98587.94
2023-04-06T08:37:50.032Z,98582.59
2023-04-06T08:40:18.954Z,98582.41
2023-04-06T08:42:52.818Z,98576.19
2023-04-06T08:45:22.686Z,98592.31
2023-04-06T08:47:52.304Z,98583.25
2023-04-06T08:50:21.547Z,98579.72
2023-04-06T08:52:52.068Z,98574.34
2023-04-06T08:55:21.309Z,98576.19
2023-04-06T08:57:50.812Z,98586.94
2023-04-06T09:00:20.175Z,98576.19
2023-04-06T09:02:50.156Z,98585.94
2023-04-06T09:05:19.450Z,98578.03
2023-04-06T09:07:48.682Z,98571.84
2023-04-06T09:10:19.561Z,98569.16
2023-04-06T09:12:48.585Z,98574.53
2023-04-06T09:15:25.020Z,98570.81
2023-04-06T09:17:55.716Z,98566.47
2023-04-06T09:20:27.228Z,98563.78
2023-04-06T09:22:56.583Z,98568.31
2023-04-06T09:25:28.225Z,98567.47
2023-04-06T09:28:04.743Z,98551.88
2023-04-06T09:30:34.189Z,98568.47
2023-04-06T09:33:03.314Z,98554.91
2023-04-06T09:35:34.425Z,98544.16
2023-04-06T09:38:13.598Z,98550.34
2023-04-06T09:41:01.336Z,98550.34
2023-04-06T09:43:31.231Z,98542.28
2023-04-06T09:46:00.429Z,98554.03
2023-04-06T09:48:30.132Z,98547.66
2023-04-06T09:51:02.107Z,98542.44
2023-04-06T09:53:31.504Z,98542.63
2023-04-06T09:56:05.104Z,98541.97
2023-04-06T09:58:36.994Z,98532.53
2023-04-06T10:01:10.204Z,98536.75
2023-04-06T10:03:46.105Z,98533.91
2023-04-06T10:06:17.346Z,98530.19
2023-04-06T10:08:46.615Z,98535.56
2023-04-06T10:11:17.387Z,98532.22
2023-04-06T10:13:46.446Z,98526.50
2023-04-06T10:16:15.850Z,98531.88
2023-04-06T10:18:47.657Z,98523.84
2023-04-06T10:21:21.709Z,98524.81
2023-04-06T10:23:52.187Z,98518.47
2023-04-06T10:26:23.744Z,98525.50
2023-04-06T10:28:53.235Z,98513.75
2023-04-06T10:31:27.857Z,98520.81
2023-04-06T10:36:28.138Z,98519.78
2023-04-06T10:38:59.403Z,98512.56
2023-04-06T10:41:37.007Z,98511.06
2023-04-06T10:44:05.994Z,98506.53
2023-04-06T10:46:35.699Z,98505.72
2023-04-06T10:49:13.838Z,98504.84
2023-04-06T10:51:42.761Z,98502.16
2023-04-06T10:54:11.951Z,98508.41
2023-04-06T10:56:42.372Z,98502.16
2023-04-06T10:59:11.219Z,98496.28
2023-04-06T11:01:41.683Z,98500.81
2023-04-06T11:04:14.484Z,98496.63
2023-04-06T11:06:43.389Z,98492.44
2023-04-06T11:09:12.148Z,98486.91
2023-04-06T11:11:43.071Z,98484.22
2023-04-06T11:14:12.627Z,98497.81
2023-04-06T11:16:41.437Z,98490.59
2023-04-06T11:19:10.757Z,98492.28
2023-04-06T11:21:41.494Z,98486.91
2023-04-06T11:24:11.566Z,98480.50
2023-04-06T11:26:43.245Z,98481.53
2023-04-06T11:29:12.095Z,98488.72
2023-04-06T11:31:44.677Z,98493.94
2023-04-06T11:34:19.088Z,98485.22
2023-04-06T11:36:48.802Z,98480.66
2023-04-06T11:39:24.255Z,98485.88
2023-04-06T11:41:55.498Z,98479.00
2023-04-06T11:44:34.131Z,98474.66
2023-04-06T11:47:03.696Z,98465.41
2023-04-06T11:49:32.521Z,98462.72
2023-04-06T11:52:02.557Z,98468.25
2023-04-06T11:54:35.490Z,98476.16
2023-04-06T12:02:04.344Z,98467.75
2023-04-06T12:04:33.413Z,98463.22
2023-04-06T12:07:02.362Z,98461.53
2023-04-06T12:09:31.007Z,98460.53
2023-04-06T12:11:59.747Z,98451.66
2023-04-06T12:14:29.829Z,98460.53
2023-04-06T12:16:58.648Z,98457.84
2023-04-06T12:19:27.309Z,98453.47
2023-04-06T12:21:56.258Z,98457.00
2023-04-06T12:24:25.211Z,98451.66
2023-04-06T12:26:59.464Z,98456.16
2023-04-06T12:29:33.542Z,98441.72
2023-04-06T12:32:03.071Z,98447.94
2023-04-06T12:34:32.089Z,98442.72
2023-04-06T12:37:01.270Z,98444.41
2023-04-06T12:39:31.247Z,98439.88
2023-04-06T12:42:00.210Z,98449.78
2023-04-06T12:44:29.189Z,98440.91
2023-04-06T12:46:59.821Z,98443.59
2023-04-06T12:52:01.935Z,98442.56
2023-04-06T12:54:30.804Z,98441.22
2023-04-06T12:56:59.770Z,98438.84
2023-04-06T12:59:29.257Z,98439.88
2023-04-06T13:01:59.797Z,98437.19
2023-04-06T13:04:28.843Z,98434.50
2023-04-06T13:06:58.050Z,98430.16
2023-04-06T13:09:26.770Z,98428.31
2023-04-06T13:11:55.710Z,98433.69
2023-04-06T13:14:24.408Z,98432.84
2023-04-06T13:16:53.364Z,98439.03
2023-04-06T13:21:52.724Z,98437.34
2023-04-06T13:24:23.041Z,98429.47
2023-04-06T13:26:51.777Z,98428.66
2023-04-06T13:29:20.784Z,98429.47
2023-04-06T13:31:50.148Z,98432.16
2023-04-06T13:34:18.916Z,98429.47
2023-04-06T13:36:49.594Z,98429.47
2023-04-06T13:39:18.326Z,98425.13
2023-04-06T13:41:47.256Z,98420.59
2023-04-06T13:44:16.663Z,98409.84
2023-04-06T13:46:45.581Z,98415.22
2023-04-06T13:49:14.196Z,98411.72
2023-04-06T13:51:43.541Z,98401.94
2023-04-06T13:54:13.578Z,98410.00
2023-04-06T13:56:42.247Z,98410.00
2023-04-06T13:59:10.902Z,98404.63
2023-04-06T14:01:40.288Z,98407.31
2023-04-06T14:04:09.333Z,98396.59
2023-04-06T14:06:39.017Z,98403.81
2023-04-06T14:09:07.689Z,98405.31
2023-04-06T14:11:39.220Z,98405.66
2023-04-06T14:14:08.176Z,98390.88
2023-04-06T14:16:37.040Z,98397.59
2023-04-06T14:19:05.954Z,98399.28
2023-04-06T14:21:34.920Z,98396.41
2023-04-06T14:24:04.152Z,98394.38
2023-04-06T14:26:33.386Z,98404.28
2023-04-06T14:29:03.713Z,98400.63
2023-04-06T14:34:02.717Z,98401.78
2023-04-06T14:36:37.185Z,98395.59
2023-04-06T14:39:07.258Z,98406.34
2023-04-06T14:41:36.370Z,98400.97
2023-04-06T14:44:07.208Z,98397.59
2023-04-06T14:46:35.932Z,98399.28
2023-04-06T14:49:04.793Z,98399.09
2023-04-06T14:51:35.821Z,98405.47
2023-04-06T14:54:05.229Z,98402.97
2023-04-06T14:56:34.180Z,98403.13
2023-04-06T14:59:04.127Z,98393.22
2023-04-06T15:01:37.480Z,98392.22
2023-04-06T15:04:07.040Z,98388.53
2023-04-06T15:06:35.679Z,98390.38
2023-04-06T15:09:04.884Z,98392.03
2023-04-06T15:11:33.954Z,98390.88
2023-04-06T15:14:03.145Z,98383.84
2023-04-06T15:16:33.838Z,98385.16
2023-04-06T15:19:04.016Z,98396.78
2023-04-06T15:21:34.890Z,98385.16
2023-04-06T15:24:04.685Z,98387.84
2023-04-06T15:26:33.981Z,98389.56
2023-04-06T15:29:03.416Z,98393.06
2023-04-06T15:31:38.277Z,98388.53
2023-04-06T15:34:09.451Z,98386.03
2023-04-06T15:36:38.365Z,98387.03
2023-04-06T15:39:09.665Z,98393.56
2023-04-06T15:41:38.895Z,98393.56
2023-04-06T15:44:07.916Z,98388.88
2023-04-06T15:46:38.229Z,98387.84
2023-04-06T15:49:06.958Z,98391.41
2023-04-06T15:51:35.808Z,98395.91
2023-04-06T15:54:04.737Z,98384.19
2023-04-06T15:56:35.036Z,98389.34
2023-04-06T15:59:05.541Z,98389.56
2023-04-06T16:01:34.406Z,98389.56
2023-04-06T16:04:05.024Z,98393.22
2023-04-06T16:06:34.242Z,98396.59
2023-04-06T16:09:03.175Z,98405.47
2023-04-06T16:11:33.130Z,98399.28
2023-04-06T16:14:01.880Z,98403.31
2023-04-06T16:16:30.810Z,98409.19
2023-04-06T16:18:59.394Z,98400.97
2023-04-06T16:21:29.768Z,98394.22
2023-04-06T16:24:00.008Z,98401.25
2023-04-06T16:26:32.086Z,98405.78
2023-04-06T16:29:00.978Z,98405.97
2023-04-06T16:31:29.606Z,98410.34
2023-04-06T16:33:58.661Z,98424.59
2023-04-06T16:36:29.794Z,98423.25
2023-04-06T16:38:58.918Z,98424.09
2023-04-06T16:41:28.995Z,98422.59
2023-04-06T16:43:58.002Z,98427.94
2023-04-06T16:46:32.215Z,98430.47
2023-04-06T16:49:01.486Z,98427.28
2023-04-06T16:51:32.515Z,98423.75
2023-04-06T16:56:29.662Z,98424.13
2023-04-06T16:58:58.460Z,98422.09
2023-04-06T17:01:29.277Z,98426.59
2023-04-06T17:03:58.819Z,98422.44
2023-04-06T17:06:28.307Z,98423.44
2023-04-06T17:09:00.077Z,98421.59
2023-04-06T17:11:36.069Z,98421.09
2023-04-06T17:14:12.213Z,98414.56
2023-04-06T17:16:40.966Z,98413.72
2023-04-06T17:19:09.594Z,98410.19
2023-04-06T17:21:38.571Z,98417.41
2023-04-06T17:24:09.508Z,98425.44
2023-04-06T17:26:38.132Z,98424.28
2023-04-06T17:29:06.749Z,98426.13
2023-04-06T17:31:35.692Z,98430.00
2023-04-06T17:34:11.657Z,98436.19
2023-04-06T17:36:40.693Z,98439.06
2023-04-06T17:39:12.023Z,98439.06
2023-04-06T17:41:40.884Z,98446.28
2023-04-06T17:44:09.440Z,98440.91
2023-04-06T17:46:38.181Z,98433.69
2023-04-06T17:49:08.675Z,98435.56
2023-04-06T17:51:37.296Z,98435.56
2023-04-06T17:54:06.238Z,98439.22
2023-04-06T17:56:36.527Z,98434.69
2023-04-06T17:59:10.079Z,98433.03
2023-04-06T18:01:40.289Z,98423.13
2023-04-06T18:04:09.197Z,98426.81
2023-04-06T18:06:38.001Z,98427.81
2023-04-06T18:09:06.683Z,98422.75
2023-04-06T18:11:36.716Z,98426.47
2023-04-06T18:14:09.441Z,98419.44
2023-04-06T18:16:38.443Z,98415.72
2023-04-06T18:19:07.797Z,98417.75
2023-04-06T18:21:38.797Z,98413.41
2023-04-06T18:24:10.087Z,98421.44
2023-04-06T18:26:42.614Z,98413.41
2023-04-06T18:29:11.984Z,98421.44
2023-04-06T18:31:41.052Z,98415.25
2023-04-06T18:34:09.568Z,98419.75
2023-04-06T18:36:38.355Z,98411.69
2023-04-06T18:39:07.002Z,98413.41
2023-04-06T18:41:36.604Z,98409.00
2023-04-06T18:44:07.217Z,98412.56
2023-04-06T18:46:36.389Z,98411.69
2023-04-06T18:49:05.764Z,98417.94
2023-04-06T18:51:34.937Z,98415.25
2023-04-06T18:54:03.585Z,98414.38
2023-04-06T18:56:32.165Z,98407.34
2023-04-06T18:59:01.127Z,98415.25
2023-04-06T19:01:32.362Z,98409.00
2023-04-06T19:04:01.552Z,98414.38
2023-04-06T19:06:31.221Z,98413.56
2023-04-06T19:08:59.884Z,98409.88
2023-04-06T19:11:28.838Z,98400.97
2023-04-06T19:13:58.610Z,98403.66
2023-04-06T19:16:29.406Z,98404.50
2023-04-06T19:19:00.316Z,98401.97
2023-04-06T19:21:29.397Z,98400.31
2023-04-06T19:23:58.843Z,98396.59
2023-04-06T19:26:29.653Z,98397.63
2023-04-06T19:28:58.174Z,98401.16
2023-04-06T19:31:28.322Z,98392.25
2023-04-06T19:33:58.493Z,98391.25
2023-04-06T19:36:28.812Z,98398.47
2023-04-06T19:38:58.216Z,98389.56
2023-04-06T19:41:27.568Z,98393.09
2023-04-06T19:43:57.229Z,98384.19
2023-04-06T19:46:25.988Z,98380.69
2023-04-06T19:48:54.924Z,98378.00
2023-04-06T19:51:25.265Z,98374.44
2023-04-06T19:53:53.954Z,98369.09
2023-04-06T19:56:22.522Z,98371.75
2023-04-06T19:58:51.370Z,98381.69
2023-04-06T20:01:19.971Z,98379.81
2023-04-06T20:03:48.745Z,98375.47
2023-04-06T20:06:17.961Z,98372.63
2023-04-06T20:08:47.704Z,98378.84
2023-04-06T20:11:19.002Z,98373.47
2023-04-06T20:13:47.891Z,98378.16
2023-04-06T20:16:16.614Z,98373.81
2023-04-06T20:18:45.329Z,98374.81
2023-04-06T20:21:13.978Z,98370.47
2023-04-06T20:23:42.805Z,98371.28
2023-04-06T20:26:12.854Z,98373.13
2023-04-06T20:28:41.755Z,98365.09
2023-04-06T20:31:10.580Z,98366.94
2023-04-06T20:33:41.615Z,98363.38
2023-04-06T20:36:12.043Z,98360.91
2023-04-06T20:38:41.279Z,98357.19
2023-04-06T20:41:10.403Z,98361.72
2023-04-06T20:43:40.517Z,98356.19
2023-04-06T20:46:09.388Z,98358.69
2023-04-06T20:48:38.501Z,98348.13
2023-04-06T20:51:07.105Z,98354.34
2023-04-06T20:53:35.971Z,98345.25
2023-04-06T20:56:04.889Z,98339.91
2023-04-06T20:58:33.685Z,98349.81
2023-04-06T21:01:04.216Z,98337.41
2023-04-06T21:03:33.360Z,98337.41
2023-04-06T21:06:02.320Z,98334.72
2023-04-06T21:08:31.246Z,98338.22
2023-04-06T21:10:59.939Z,98336.53
2023-04-06T21:13:29.071Z,98340.09
2023-04-06T21:15:57.810Z,98333.84
2023-04-06T21:18:28.391Z,98335.72
2023-04-06T21:20:57.169Z,98328.69
2023-04-06T21:23:25.838Z,98316.09
2023-04-06T21:25:57.447Z,98320.44
2023-04-06T21:28:26.365Z,98320.44
2023-04-06T21:30:54.940Z,98319.59
2023-04-06T21:33:23.726Z,98316.09
2023-04-06T21:35:54.201Z,98312.56
2023-04-06T21:38:22.907Z,98312.56
2023-04-06T21:40:57.070Z,98322.28
2023-04-06T21:43:25.685Z,98317.75
2023-04-06T21:45:54.884Z,98315.25
2023-04-06T21:48:26.028Z,98313.41
2023-04-06T21:50:58.988Z,98313.41
2023-04-06T21:53:28.464Z,98314.41
2023-04-06T21:55:57.201Z,98302.66
2023-04-06T21:58:25.881Z,98308.84
2023-04-06T22:00:55.455Z,98303.69
2023-04-06T22:03:24.344Z,98301.63
2023-04-06T22:05:53.295Z,98295.63
2023-04-06T22:08:33.697Z,98294.75
2023-04-06T22:11:03.677Z,98293.09
2023-04-06T22:13:32.341Z,98293.94
2023-04-06T22:16:01.160Z,98288.56
2023-04-06T22:18:29.815Z,98286.91
2023-04-06T22:20:58.527Z,98286.91
2023-04-06T22:23:28.732Z,98285.88
2023-04-06T22:25:58.339Z,98288.56
2023-04-06T22:28:27.251Z,98293.09
2023-04-06T22:30:56.217Z,98297.63
2023-04-06T22:33:25.376Z,98286.91
2023-04-06T22:35:54.228Z,98281.53
2023-04-06T22:38:22.829Z,98283.38
2023-04-06T22:40:52.812Z,98278.03
2023-04-06T22:43:21.500Z,98279.88
2023-04-06T22:45:50.639Z,98279.00
2023-04-06T22:48:19.390Z,98273.47
2023-04-06T22:50:48.120Z,98277.19
2023-04-06T22:53:16.883Z,98276.31
2023-04-06T22:55:46.527Z,98272.81
2023-04-06T22:58:16.684Z,98262.91
2023-04-06T23:00:45.370Z,98268.28
2023-04-06T23:03:14.276Z,98270.94
2023-04-06T23:05:43.850Z,98262.91
2023-04-06T23:08:13.068Z,98256.69
2023-04-06T23:10:42.941Z,98251.31
2023-04-06T23:13:11.696Z,98258.56
2023-04-06T23:15:42.010Z,98257.53
2023-04-06T23:18:10.687Z,98254.22
2023-04-06T23:20:39.276Z,98256.88
2023-04-06T23:23:08.072Z,98252.34
2023-04-06T23:25:37.175Z,98247.97
2023-04-06T23:28:06.347Z,98253.34
2023-04-06T23:30:35.551Z,98247.00
2023-04-06T23:33:06.133Z,98242.59
2023-04-06T23:35:35.014Z,98242.59
2023-04-06T23:38:04.337Z,98240.78
2023-04-06T23:40:33.210Z,98236.41
2023-04-06T23:43:02.041Z,98233.72
2023-04-06T23:45:30.692Z,98233.72
2023-04-06T23:47:59.996Z,98231.88
2023-04-06T23:50:30.065Z,98229.38
2023-04-06T23:52:59.097Z,98221.31
2023-04-06T23:55:27.854Z,98230.22
2023-04-06T23:57:56.780Z,98224.84
